createdAt,value
2023-02-15T00:02:34.698Z,982.81
2023-02-15T00:08:06.206Z,982.27
2023-02-15T00:13:39.675Z,982.14
2023-02-15T00:19:09.729Z,981.72
2023-02-15T00:24:45.943Z,981.94
2023-02-15T00:30:17.857Z,981.99
2023-02-15T00:35:49.138Z,982.15
2023-02-15T00:41:20.875Z,982.63
2023-02-15T00:46:52.533Z,982.53
2023-02-15T00:52:24.417Z,982.39
2023-02-15T00:57:56.694Z,982.29
2023-02-15T01:03:28.235Z,982.37
2023-02-15T01:08:59.713Z,982.24
2023-02-15T01:14:31.441Z,981.55
2023-02-15T01:20:03.622Z,981.82
2023-02-15T01:25:41.911Z,982.18
2023-02-15T01:31:13.282Z,982.06
2023-02-15T01:36:44.675Z,981.82
2023-02-15T01:42:16.315Z,981.92
2023-02-15T01:47:48.207Z,981.65
2023-02-15T01:53:19.963Z,981.77
2023-02-15T01:58:51.818Z,981.64
2023-02-15T02:04:23.606Z,981.54
2023-02-15T02:09:55.317Z,981.35
2023-02-15T02:15:27.054Z,980.62
2023-02-15T02:20:58.635Z,980.09
2023-02-15T02:26:34.628Z,979.94
2023-02-15T02:32:06.810Z,979.77
2023-02-15T02:37:38.116Z,979.64
2023-02-15T02:43:09.986Z,979.41
2023-02-15T02:48:41.704Z,979.63
2023-02-15T02:54:13.658Z,979.11
2023-02-15T02:59:45.019Z,979.59
2023-02-15T03:05:16.948Z,979.67
2023-02-15T03:10:48.782Z,978.63
2023-02-15T03:16:20.866Z,978.47
2023-02-15T03:21:52.031Z,979.29
2023-02-15T03:27:30.135Z,979.66
2023-02-15T03:33:02.357Z,978.56
2023-02-15T03:38:33.643Z,979.0
2023-02-15T03:44:06.268Z,980.19
2023-02-15T03:49:37.055Z,979.96
2023-02-15T03:55:08.796Z,979.96
2023-02-15T04:00:40.415Z,980.49
2023-02-15T04:06:12.243Z,980.54
2023-02-15T04:11:44.066Z,980.8
2023-02-15T04:17:15.893Z,980.86
2023-02-15T04:22:47.462Z,980.65
2023-02-15T04:28:24.342Z,980.39
2023-02-15T04:33:55.773Z,978.67
2023-02-15T04:39:26.967Z,980.39
2023-02-15T04:44:58.726Z,980.21
2023-02-15T04:50:30.563Z,981.07
2023-02-15T04:56:03.675Z,980.84
2023-02-15T05:01:34.573Z,980.71
2023-02-15T05:07:06.065Z,980.09
2023-02-15T05:12:37.360Z,980.2
2023-02-15T05:18:09.471Z,980.46
2023-02-15T05:23:40.708Z,980.52
2023-02-15T05:29:16.919Z,980.35
2023-02-15T05:34:48.404Z,980.16
2023-02-15T05:40:20.351Z,980.22
2023-02-15T05:45:52.279Z,980.51
2023-02-15T05:51:23.926Z,980.4
2023-02-15T05:56:55.642Z,980.7
2023-02-15T06:02:27.272Z,980.67
2023-02-15T06:07:58.811Z,980.66
2023-02-15T06:13:30.959Z,980.75
2023-02-15T06:19:02.677Z,980.75
2023-02-15T06:24:34.022Z,980.99
2023-02-15T06:30:12.702Z,981.24
2023-02-15T06:35:43.967Z,981.68
2023-02-15T06:41:15.851Z,981.42
2023-02-15T06:46:47.791Z,981.36
2023-02-15T06:52:19.395Z,981.41
2023-02-15T06:57:52.021Z,981.62
2023-02-15T07:03:22.909Z,981.78
2023-02-15T07:08:54.314Z,981.64
2023-02-15T07:14:29.319Z,981.64
2023-02-15T07:19:58.111Z,981.92
2023-02-15T07:25:29.740Z,982.48
2023-02-15T07:31:06.114Z,982.48
2023-02-15T07:36:38.113Z,982.07
2023-02-15T07:42:09.868Z,982.32
2023-02-15T07:47:41.323Z,981.81
2023-02-15T07:53:12.678Z,982.72
2023-02-15T07:58:44.422Z,982.7
2023-02-15T08:04:16.052Z,982.67
2023-02-15T08:09:48.135Z,982.33
2023-02-15T08:15:19.686Z,980.52
2023-02-15T08:20:51.165Z,980.67
2023-02-15T08:26:23.085Z,980.66
2023-02-15T08:32:01.712Z,982.4
2023-02-15T08:37:32.852Z,982.77
2023-02-15T08:43:05.332Z,982.61
2023-02-15T08:48:36.387Z,982.87
2023-02-15T08:54:08.057Z,982.2
2023-02-15T08:59:40.391Z,980.29
2023-02-15T09:05:11.430Z,982.25
2023-02-15T09:10:43.046Z,984.49
2023-02-15T09:16:15.239Z,984.41
2023-02-15T09:21:46.708Z,985.05
2023-02-15T09:27:18.403Z,984.19
2023-02-15T09:32:54.571Z,985.47
2023-02-15T09:38:26.298Z,984.94
2023-02-15T09:43:57.866Z,983.64
2023-02-15T09:49:29.943Z,986.16
2023-02-15T09:55:01.790Z,986.41
2023-02-15T10:00:33.162Z,986.17
2023-02-15T10:06:05.214Z,985.84
2023-02-15T10:11:36.922Z,987.61
2023-02-15T10:17:08.325Z,987.44
2023-02-15T10:22:40.971Z,987.93
2023-02-15T10:28:12.158Z,988.06
2023-02-15T10:33:48.077Z,990.39
2023-02-15T10:39:20.005Z,990.59
2023-02-15T10:44:51.402Z,991.06
2023-02-15T10:50:23.408Z,990.65
2023-02-15T10:55:54.833Z,990.8
2023-02-15T11:01:27.124Z,991.65
2023-02-15T11:06:58.593Z,991.68
2023-02-15T11:12:29.917Z,989.92
2023-02-15T11:18:01.628Z,990.61
2023-02-15T11:23:33.731Z,990.43
2023-02-15T11:29:04.996Z,990.98
2023-02-15T11:34:43.357Z,991.78
2023-02-15T11:40:14.959Z,991.96
2023-02-15T11:45:47.038Z,992.67
2023-02-15T11:51:18.580Z,991.19
2023-02-15T11:56:50.570Z,991.07
2023-02-15T12:02:22.378Z,990.83
2023-02-15T12:07:53.898Z,992.25
2023-02-15T12:13:25.686Z,991.98
2023-02-15T12:18:57.434Z,993.67
2023-02-15T12:24:29.008Z,992.39
2023-02-15T12:30:01.327Z,993.17
2023-02-15T12:35:37.934Z,992.86
2023-02-15T12:41:08.915Z,992.55
2023-02-15T12:46:40.876Z,992.82
2023-02-15T12:52:12.030Z,992.41
2023-02-15T12:57:43.902Z,992.79
2023-02-15T13:03:16.109Z,991.9
2023-02-15T13:08:47.546Z,991.75
2023-02-15T13:14:19.036Z,990.53
2023-02-15T13:19:51.005Z,990.93
2023-02-15T13:25:22.459Z,991.7
2023-02-15T13:30:54.533Z,991.73
2023-02-15T13:36:30.610Z,991.09
2023-02-15T13:42:02.346Z,991.31
2023-02-15T13:47:34.161Z,991.56
2023-02-15T13:53:05.773Z,991.39
2023-02-15T13:58:37.510Z,991.71
2023-02-15T14:04:09.225Z,991.03
2023-02-15T14:09:41.596Z,991.18
2023-02-15T14:15:12.813Z,990.86
2023-02-15T14:20:44.203Z,991.21
2023-02-15T14:26:15.849Z,990.76
2023-02-15T14:31:47.869Z,991.01
2023-02-15T14:37:23.743Z,991.28
2023-02-15T14:42:55.683Z,991.23
2023-02-15T14:48:27.561Z,991.09
2023-02-15T14:53:59.114Z,991.2
2023-02-15T14:59:30.933Z,991.3
2023-02-15T15:05:02.270Z,991.45
2023-02-15T15:10:33.970Z,990.41
2023-02-15T15:16:06.514Z,990.74
2023-02-15T15:21:37.497Z,991.02
2023-02-15T15:27:09.319Z,990.66
2023-02-15T15:32:40.864Z,990.56
2023-02-15T15:38:17.044Z,990.12
2023-02-15T15:43:48.752Z,990.15
2023-02-15T15:49:20.567Z,989.83
2023-02-15T15:54:52.580Z,989.52
2023-02-15T16:00:23.971Z,989.31
2023-02-15T16:05:55.841Z,989.04
2023-02-15T16:11:27.607Z,988.68
2023-02-15T16:16:59.056Z,988.43
2023-02-15T16:22:31.291Z,988.14
2023-02-15T16:28:02.564Z,987.89
2023-02-15T16:33:34.226Z,987.52
2023-02-15T16:39:10.487Z,987.43
2023-02-15T16:44:42.413Z,986.93
2023-02-15T16:50:14.193Z,986.71
2023-02-15T16:55:46.230Z,986.6
2023-02-15T17:01:18.174Z,986.44
2023-02-15T17:06:49.445Z,986.45
2023-02-15T17:12:21.127Z,986.15
2023-02-15T17:17:52.662Z,985.91
2023-02-15T17:23:24.578Z,985.71
2023-02-15T17:28:56.246Z,985.6
2023-02-15T17:34:28.011Z,985.53
2023-02-15T17:40:04.011Z,985.55
2023-02-15T17:45:36.152Z,985.52
2023-02-15T17:51:07.462Z,985.47
2023-02-15T17:56:39.051Z,985.29
2023-02-15T18:02:10.887Z,985.15
2023-02-15T18:07:42.738Z,985.11
2023-02-15T18:13:14.359Z,985.03
2023-02-15T18:18:46.217Z,984.94
2023-02-15T18:24:17.906Z,984.96
2023-02-15T18:29:49.591Z,985.13
2023-02-15T18:35:21.442Z,985.19
2023-02-15T18:41:00.019Z,985.1
2023-02-15T18:46:31.165Z,985.11
2023-02-15T18:52:02.880Z,984.89
2023-02-15T18:57:34.639Z,984.83
2023-02-15T19:03:06.317Z,984.8
2023-02-15T19:08:37.963Z,984.5
2023-02-15T19:14:10.650Z,984.22
2023-02-15T19:19:41.536Z,984.39
2023-02-15T19:25:13.449Z,984.43
2023-02-15T19:30:44.908Z,984.4
2023-02-15T19:36:16.604Z,984.57
2023-02-15T19:41:53.042Z,984.57
2023-02-15T19:47:24.569Z,984.62
2023-02-15T19:52:56.648Z,984.41
2023-02-15T19:58:27.845Z,984.77
2023-02-15T20:04:00.032Z,984.49
2023-02-15T20:09:32.454Z,984.64
2023-02-15T20:15:03.439Z,985.23
2023-02-15T20:20:35.331Z,985.01
2023-02-15T20:26:06.452Z,984.88
2023-02-15T20:31:38.580Z,985.01
2023-02-15T20:37:10.216Z,984.89
2023-02-15T20:42:46.378Z,984.84
2023-02-15T20:48:17.851Z,984.91
2023-02-15T20:53:49.770Z,984.65
2023-02-15T20:59:21.382Z,984.65
2023-02-15T21:04:53.358Z,984.57
2023-02-15T21:10:24.899Z,984.36
2023-02-15T21:15:56.737Z,983.7
2023-02-15T21:21:28.167Z,983.25
2023-02-15T21:27:00.258Z,983.26
2023-02-15T21:32:32.511Z,983.23
2023-02-15T21:38:04.139Z,983.37
2023-02-15T21:43:39.690Z,983.18
2023-02-15T21:49:11.615Z,983.12
2023-02-15T21:54:43.440Z,983.06
2023-02-15T22:00:15.215Z,982.92
2023-02-15T22:05:46.690Z,982.74
2023-02-15T22:11:18.397Z,982.68
2023-02-15T22:16:50.760Z,982.81
2023-02-15T22:22:21.986Z,983.16
2023-02-15T22:27:53.957Z,983.1
2023-02-15T22:33:25.167Z,982.92
2023-02-15T22:38:56.948Z,983.04
2023-02-15T22:44:35.308Z,982.72
2023-02-15T22:50:06.795Z,982.62
2023-02-15T22:55:38.586Z,982.69
2023-02-15T23:01:11.377Z,982.54
2023-02-15T23:06:42.434Z,982.48
2023-02-15T23:12:13.440Z,981.7
2023-02-15T23:17:46.208Z,982.22
2023-02-15T23:23:16.943Z,982.13
2023-02-15T23:28:48.777Z,982.1
2023-02-15T23:34:20.581Z,982.09
2023-02-15T23:39:52.709Z,982.09
2023-02-15T23:45:30.316Z,981.8
2023-02-15T23:51:03.048Z,981.51
2023-02-15T23:56:33.642Z,981.49
